CYZR

Sarnia Chris Hadfield Airport

Sarnia, , Canada
METAR CYZR 231000Z AUTO 20009KT 9SM OVC230 04/04 A2945 RMK SLP979
Observed Flight Rules
Jan-23 @ 10:00 UTC (2 hours ago) Visual Flight Rules
Wind Visibility Clouds
200° at 9 knots 9 miles
  • Overcast at 23,000' AGL
Temperatures Readings
Current 4°C / 39°F
Dewpoint 4°C / 39°F
Humidity 100%
Altimeter 29.45" Hg
Pressure 997.9 hPa
Elevation 181
METAR CYZR 231000Z AUTO 20009KT 9SM OVC230 04/04 A2945 RMK SLP979
Observed Flight Rules
Jan-23 @ 10:00 UTC
(2 hours ago)
VFR
Wind Visibility
200° at 9 knots 9 miles
Clouds
  • Overcast at 23,000' AGL
Temperature Dewpoint
4°C / 39°F 4°C / 39°F
Humidity Altimeter Pressure
100% 29.45" Hg 997.9 hPa